createdAt,value
2022-11-17T00:00:55.692Z,27.00
2022-11-17T00:01:58.961Z,25.73
2022-11-17T00:03:02.013Z,35.40
2022-11-17T00:04:04.681Z,28.02
2022-11-17T00:05:07.815Z,22.70
2022-11-17T00:06:12.140Z,26.02
2022-11-17T00:07:14.901Z,23.55
2022-11-17T00:08:17.661Z,26.67
2022-11-17T00:09:20.381Z,27.85
2022-11-17T00:10:23.019Z,23.75
2022-11-17T00:11:25.566Z,26.62
2022-11-17T00:12:47.166Z,29.20
2022-11-17T00:14:08.214Z,21.70
2022-11-17T00:15:10.867Z,25.08
2022-11-17T00:16:15.227Z,28.33
2022-11-17T00:17:17.930Z,25.42
2022-11-17T00:18:39.172Z,28.12
2022-11-17T00:20:00.189Z,32.15
2022-11-17T00:21:19.998Z,29.27
2022-11-17T00:22:23.312Z,29.05
2022-11-17T00:23:47.128Z,31.70
2022-11-17T00:24:50.573Z,28.02
2022-11-17T00:25:53.361Z,31.52
2022-11-17T00:27:02.187Z,36.15
2022-11-17T00:28:05.188Z,37.97
2022-11-17T00:29:11.580Z,35.22
2022-11-17T00:30:34.375Z,35.00
2022-11-17T00:31:55.410Z,31.17
2022-11-17T00:33:23.010Z,26.50
2022-11-17T00:34:25.581Z,28.52
2022-11-17T00:35:28.175Z,34.35
2022-11-17T00:36:36.102Z,30.83
2022-11-17T00:38:00.601Z,31.50
2022-11-17T00:39:03.548Z,29.63
2022-11-17T00:40:06.865Z,33.05
2022-11-17T00:41:09.573Z,32.38
2022-11-17T00:42:12.359Z,30.73
2022-11-17T00:43:15.125Z,29.55
2022-11-17T00:44:17.976Z,30.90
2022-11-17T00:45:20.667Z,30.75
2022-11-17T00:46:23.782Z,32.15
2022-11-17T00:47:26.651Z,33.55
2022-11-17T00:48:29.643Z,32.40
2022-11-17T00:49:32.298Z,30.08
2022-11-17T00:50:35.013Z,31.58
2022-11-17T00:51:38.557Z,35.90
2022-11-17T00:52:41.252Z,27.33
2022-11-17T00:53:44.046Z,32.33
2022-11-17T00:54:46.760Z,31.75
2022-11-17T00:55:49.389Z,32.15
2022-11-17T00:56:52.248Z,30.05
2022-11-17T00:57:55.051Z,33.75
2022-11-17T00:58:58.287Z,28.52
2022-11-17T01:00:01.100Z,28.90
2022-11-17T01:01:04.536Z,29.48
2022-11-17T01:02:07.330Z,32.03
2022-11-17T01:03:10.096Z,30.73
2022-11-17T01:04:14.264Z,28.77
2022-11-17T01:05:17.391Z,29.55
2022-11-17T01:06:20.779Z,28.15
2022-11-17T01:07:23.519Z,29.83
2022-11-17T01:08:26.249Z,32.25
2022-11-17T01:09:28.983Z,26.23
2022-11-17T01:10:31.996Z,30.12
2022-11-17T01:11:34.674Z,26.02
2022-11-17T01:12:37.281Z,26.92
2022-11-17T01:13:41.089Z,29.20
2022-11-17T01:14:43.869Z,27.17
2022-11-17T01:15:46.508Z,28.77
2022-11-17T01:16:49.573Z,28.55
2022-11-17T01:17:52.205Z,26.55
2022-11-17T01:18:55.176Z,25.75
2022-11-17T01:19:58.016Z,25.70
2022-11-17T01:21:21.852Z,26.87
2022-11-17T01:22:24.501Z,26.48
2022-11-17T01:23:27.222Z,26.83
2022-11-17T01:24:30.247Z,28.62
2022-11-17T01:25:33.021Z,26.90
2022-11-17T01:26:37.268Z,26.10
2022-11-17T01:27:40.066Z,26.73
2022-11-17T01:28:43.218Z,23.23
2022-11-17T01:29:45.877Z,24.65
2022-11-17T01:30:48.550Z,27.92
2022-11-17T01:31:52.665Z,23.85
2022-11-17T01:32:55.405Z,22.37
2022-11-17T01:33:58.723Z,23.48
2022-11-17T01:35:01.410Z,24.58
2022-11-17T01:36:11.363Z,25.70
2022-11-17T01:37:20.037Z,28.10
2022-11-17T01:38:22.834Z,25.92
2022-11-17T01:39:27.998Z,25.90
2022-11-17T01:40:30.950Z,25.30
2022-11-17T01:41:33.740Z,27.83
2022-11-17T01:42:36.542Z,26.65
2022-11-17T01:43:48.354Z,28.10
2022-11-17T01:45:01.814Z,32.92
2022-11-17T01:46:05.256Z,25.23
2022-11-17T01:47:31.297Z,26.73
2022-11-17T01:48:34.477Z,27.27
2022-11-17T01:49:37.224Z,30.67
2022-11-17T01:50:45.805Z,28.17
2022-11-17T01:51:57.770Z,32.85
2022-11-17T01:53:05.430Z,34.78
2022-11-17T01:54:10.997Z,30.33
2022-11-17T01:55:13.787Z,30.95
2022-11-17T01:56:23.170Z,31.10
2022-11-17T01:57:33.342Z,30.83
2022-11-17T01:58:41.346Z,30.75
2022-11-17T01:59:49.612Z,30.80
2022-11-17T02:00:54.438Z,33.97
2022-11-17T02:01:58.071Z,29.35
2022-11-17T02:03:01.946Z,31.25
2022-11-17T02:04:04.677Z,30.50
2022-11-17T02:05:27.125Z,29.52
2022-11-17T02:06:36.604Z,30.50
2022-11-17T02:07:41.533Z,31.80
2022-11-17T02:08:48.582Z,36.13
2022-11-17T02:09:53.095Z,31.98
2022-11-17T02:10:56.229Z,32.78
2022-11-17T02:11:59.324Z,30.23
2022-11-17T02:13:02.579Z,33.45
2022-11-17T02:14:05.634Z,31.87
2022-11-17T02:15:12.472Z,33.58
2022-11-17T02:16:18.661Z,30.37
2022-11-17T02:17:24.546Z,34.53
2022-11-17T02:18:28.554Z,30.17
2022-11-17T02:19:37.546Z,29.00
2022-11-17T02:20:50.484Z,32.25
2022-11-17T02:22:27.095Z,34.88
2022-11-17T02:23:35.886Z,27.90
2022-11-17T02:25:16.035Z,29.65
2022-11-17T02:26:33.861Z,30.45
2022-11-17T02:28:01.693Z,36.08
2022-11-17T02:29:24.015Z,30.48
2022-11-17T02:30:37.962Z,29.75
2022-11-17T02:32:00.194Z,33.08
2022-11-17T02:33:21.087Z,30.95
2022-11-17T02:34:45.197Z,31.40
2022-11-17T02:35:58.723Z,32.20
2022-11-17T02:37:19.212Z,31.60
2022-11-17T02:38:43.604Z,32.47
2022-11-17T02:40:08.619Z,29.25
2022-11-17T02:41:23.183Z,31.40
2022-11-17T02:42:55.287Z,31.80
2022-11-17T02:44:04.963Z,31.25
2022-11-17T02:45:11.500Z,31.98
2022-11-17T02:46:23.775Z,29.23
2022-11-17T02:47:30.388Z,28.33
2022-11-17T02:48:48.287Z,28.02
2022-11-17T02:49:57.406Z,29.55
2022-11-17T02:51:01.940Z,29.85
2022-11-17T02:52:06.565Z,30.00
2022-11-17T02:53:09.742Z,29.48
2022-11-17T02:54:13.487Z,28.00
2022-11-17T02:55:16.209Z,32.47
2022-11-17T02:56:19.153Z,32.38
2022-11-17T02:57:33.366Z,28.85
2022-11-17T02:58:36.457Z,28.87
2022-11-17T02:59:46.476Z,29.73
2022-11-17T03:01:28.193Z,28.98
2022-11-17T03:03:02.174Z,29.35
2022-11-17T03:04:10.415Z,26.98
2022-11-17T03:05:23.085Z,29.52
2022-11-17T03:06:39.330Z,27.00
2022-11-17T03:08:02.811Z,27.98
2022-11-17T03:09:33.094Z,26.58
2022-11-17T03:11:04.421Z,27.10
2022-11-17T03:12:22.027Z,28.90
2022-11-17T03:13:44.461Z,28.58
2022-11-17T03:15:19.305Z,25.45
2022-11-17T03:16:37.540Z,27.33
2022-11-17T03:18:02.026Z,28.05
2022-11-17T03:19:24.677Z,23.85
2022-11-17T03:20:55.413Z,27.48
2022-11-17T03:22:11.814Z,27.05
2022-11-17T03:23:19.567Z,23.70
2022-11-17T03:24:29.262Z,24.50
2022-11-17T03:25:35.216Z,23.77
2022-11-17T03:26:48.164Z,22.77
2022-11-17T03:28:12.461Z,20.70
2022-11-17T03:29:20.698Z,23.40
2022-11-17T03:30:25.567Z,24.27
2022-11-17T03:31:29.840Z,22.25
2022-11-17T03:32:40.693Z,25.20
2022-11-17T03:33:49.051Z,22.80
2022-11-17T03:34:57.610Z,25.15
2022-11-17T03:36:23.183Z,26.58
2022-11-17T03:37:31.611Z,24.70
2022-11-17T03:38:38.768Z,24.33
2022-11-17T03:39:46.766Z,24.27
2022-11-17T03:40:51.781Z,22.77
2022-11-17T03:42:01.091Z,25.70
2022-11-17T03:43:07.805Z,23.50
2022-11-17T03:44:12.691Z,24.58
2022-11-17T03:45:29.370Z,24.98
2022-11-17T03:48:09.051Z,25.80
2022-11-17T03:49:20.956Z,26.55
2022-11-17T03:50:52.437Z,27.05
2022-11-17T03:51:55.731Z,27.08
2022-11-17T03:52:58.567Z,27.42
2022-11-17T03:54:01.810Z,32.38
2022-11-17T03:55:06.452Z,28.73
2022-11-17T03:56:41.609Z,26.55
2022-11-17T03:58:01.317Z,25.80
2022-11-17T03:59:24.519Z,34.95
2022-11-17T04:00:27.328Z,30.08
2022-11-17T04:01:33.333Z,29.90
2022-11-17T04:02:36.219Z,30.55
2022-11-17T04:03:39.927Z,33.13
2022-11-17T04:05:01.203Z,34.90
2022-11-17T04:06:03.986Z,27.95
2022-11-17T04:07:06.777Z,30.55
2022-11-17T04:08:09.529Z,37.38
2022-11-17T04:09:12.304Z,29.83
2022-11-17T04:10:20.997Z,29.05
2022-11-17T04:11:42.517Z,29.33
2022-11-17T04:13:06.259Z,29.00
2022-11-17T04:14:28.043Z,31.10
2022-11-17T04:15:49.361Z,28.65
2022-11-17T04:16:52.157Z,32.88
2022-11-17T04:17:54.905Z,30.77
2022-11-17T04:19:01.515Z,30.73
2022-11-17T04:20:04.528Z,32.13
2022-11-17T04:21:07.300Z,31.05
2022-11-17T04:22:09.985Z,30.65
2022-11-17T04:23:14.732Z,31.95
2022-11-17T04:24:18.483Z,31.02
2022-11-17T04:25:41.242Z,33.65
2022-11-17T04:27:03.200Z,30.85
2022-11-17T04:28:24.393Z,34.58
2022-11-17T04:29:28.616Z,32.70
2022-11-17T04:30:34.562Z,34.38
2022-11-17T04:31:37.232Z,31.37
2022-11-17T04:32:39.979Z,31.00
2022-11-17T04:33:48.621Z,37.58
2022-11-17T04:34:51.411Z,33.25
2022-11-17T04:35:54.175Z,33.25
2022-11-17T04:36:57.970Z,36.15
2022-11-17T04:38:01.569Z,34.95
2022-11-17T04:39:04.730Z,36.08
2022-11-17T04:40:08.418Z,37.13
2022-11-17T04:41:31.888Z,35.55
2022-11-17T04:42:34.568Z,35.35
2022-11-17T04:43:40.420Z,39.83
2022-11-17T04:44:43.089Z,32.85
2022-11-17T04:45:45.686Z,34.13
2022-11-17T04:46:48.428Z,38.75
2022-11-17T04:47:51.145Z,38.30
2022-11-17T04:48:55.653Z,38.35
2022-11-17T04:49:58.253Z,37.47
2022-11-17T04:51:01.021Z,35.85
2022-11-17T04:52:03.858Z,37.85
2022-11-17T04:53:06.530Z,35.67
2022-11-17T04:54:11.411Z,36.75
2022-11-17T04:55:14.650Z,35.65
2022-11-17T04:56:19.540Z,37.40
2022-11-17T04:57:22.248Z,35.03
2022-11-17T04:58:25.014Z,33.58
2022-11-17T04:59:27.647Z,36.67
2022-11-17T05:00:30.287Z,34.67
2022-11-17T05:01:33.328Z,33.00
2022-11-17T05:02:37.621Z,36.58
2022-11-17T05:03:42.938Z,37.70
2022-11-17T05:04:57.686Z,33.85
2022-11-17T05:06:03.459Z,29.23
2022-11-17T05:07:07.391Z,33.20
2022-11-17T05:08:10.284Z,35.05
2022-11-17T05:09:15.896Z,35.53
2022-11-17T05:10:38.702Z,31.50
2022-11-17T05:12:01.173Z,29.05
2022-11-17T05:13:21.847Z,34.60
2022-11-17T05:14:25.892Z,28.98
2022-11-17T05:15:47.312Z,32.97
2022-11-17T05:17:10.816Z,33.80
2022-11-17T05:19:24.308Z,33.00
2022-11-17T05:20:26.926Z,29.90
2022-11-17T05:21:29.849Z,29.73
2022-11-17T05:22:50.901Z,32.33
2022-11-17T05:23:56.288Z,30.50
2022-11-17T05:25:02.481Z,31.45
2022-11-17T05:26:05.308Z,30.92
2022-11-17T05:27:08.460Z,37.90
2022-11-17T05:28:13.133Z,31.05
2022-11-17T05:29:18.274Z,32.17
2022-11-17T05:30:20.885Z,34.60
2022-11-17T05:31:24.743Z,35.45
2022-11-17T05:32:27.453Z,28.02
2022-11-17T05:33:33.615Z,34.03
2022-11-17T05:34:40.284Z,30.20
2022-11-17T05:35:43.120Z,32.38
2022-11-17T05:36:46.016Z,32.38
2022-11-17T05:37:48.619Z,39.08
2022-11-17T05:38:51.628Z,36.58
2022-11-17T05:39:54.459Z,34.65
2022-11-17T05:40:57.238Z,33.65
2022-11-17T05:41:59.862Z,32.80
2022-11-17T05:43:02.547Z,30.55
2022-11-17T05:45:22.369Z,27.77
2022-11-17T05:46:26.347Z,33.17
2022-11-17T05:47:29.621Z,33.33
2022-11-17T05:48:34.022Z,33.20
2022-11-17T05:49:36.886Z,33.03
2022-11-17T05:50:39.829Z,32.33
2022-11-17T05:51:42.802Z,36.33
2022-11-17T05:52:45.667Z,33.40
2022-11-17T05:53:49.117Z,33.85
2022-11-17T05:54:51.999Z,31.60
2022-11-17T05:56:25.838Z,29.98
2022-11-17T05:57:32.348Z,29.27
2022-11-17T05:58:38.105Z,31.45
2022-11-17T05:59:47.110Z,30.65
2022-11-17T06:00:51.999Z,32.67
2022-11-17T06:02:04.815Z,34.38
2022-11-17T06:03:19.040Z,32.00
2022-11-17T06:04:22.170Z,30.92
2022-11-17T06:05:26.085Z,31.35
2022-11-17T06:06:30.481Z,33.13
2022-11-17T06:07:35.902Z,32.85
2022-11-17T06:08:39.230Z,31.00
2022-11-17T06:09:42.398Z,31.23
2022-11-17T06:10:45.263Z,32.63
2022-11-17T06:11:48.077Z,33.25
2022-11-17T06:12:51.020Z,30.25
2022-11-17T06:13:53.811Z,30.40
2022-11-17T06:14:56.748Z,30.05
2022-11-17T06:16:04.622Z,31.83
2022-11-17T06:17:29.011Z,31.00
2022-11-17T06:18:41.928Z,29.90
2022-11-17T06:19:49.798Z,30.27
2022-11-17T06:20:54.062Z,30.15
2022-11-17T06:22:11.778Z,30.48
2022-11-17T06:23:17.781Z,29.30
2022-11-17T06:24:21.170Z,29.35
2022-11-17T06:25:24.631Z,29.00
2022-11-17T06:26:28.055Z,28.48
2022-11-17T06:27:32.751Z,30.45
2022-11-17T06:28:38.026Z,33.22
2022-11-17T06:29:44.342Z,29.25
2022-11-17T06:30:49.360Z,33.95
2022-11-17T06:31:54.152Z,30.08
2022-11-17T06:32:59.093Z,31.17
2022-11-17T06:34:03.208Z,28.73
2022-11-17T06:35:09.387Z,29.95
2022-11-17T06:36:12.268Z,32.60
2022-11-17T06:37:15.366Z,31.60
2022-11-17T06:38:18.160Z,28.55
2022-11-17T06:39:21.038Z,27.67
2022-11-17T06:40:23.896Z,28.73
2022-11-17T06:41:27.042Z,28.45
2022-11-17T06:42:52.722Z,25.70
2022-11-17T06:43:55.577Z,26.75
2022-11-17T06:44:58.699Z,32.83
2022-11-17T06:46:05.345Z,27.83
2022-11-17T06:47:08.557Z,27.77
2022-11-17T06:48:14.634Z,29.70
2022-11-17T06:49:17.690Z,27.20
2022-11-17T06:50:21.856Z,27.35
2022-11-17T06:51:24.672Z,26.20
2022-11-17T06:52:27.523Z,27.67
2022-11-17T06:53:30.911Z,27.83
2022-11-17T06:54:33.664Z,25.55
2022-11-17T06:55:37.116Z,27.27
2022-11-17T06:56:40.160Z,25.67
2022-11-17T06:57:42.972Z,23.65
2022-11-17T06:58:46.018Z,24.85
2022-11-17T06:59:48.834Z,26.25
2022-11-17T07:00:51.746Z,24.55
2022-11-17T07:01:54.691Z,26.20
2022-11-17T07:03:15.733Z,24.85
2022-11-17T07:04:18.787Z,30.65
2022-11-17T07:05:21.584Z,24.83
2022-11-17T07:06:24.635Z,24.83
2022-11-17T07:07:27.779Z,23.58
2022-11-17T07:08:31.059Z,25.58
2022-11-17T07:09:33.931Z,24.40
2022-11-17T07:10:37.319Z,26.58
2022-11-17T07:11:40.169Z,26.33
2022-11-17T07:12:43.039Z,24.27
2022-11-17T07:13:46.195Z,22.67
2022-11-17T07:14:49.204Z,24.80
2022-11-17T07:15:52.511Z,26.85
2022-11-17T07:16:55.257Z,26.05
2022-11-17T07:17:58.839Z,23.95
2022-11-17T07:19:04.014Z,20.67
2022-11-17T07:20:07.471Z,24.10
2022-11-17T07:21:13.829Z,24.25
2022-11-17T07:22:16.809Z,25.80
2022-11-17T07:23:19.731Z,26.87
2022-11-17T07:24:22.569Z,25.83
2022-11-17T07:25:25.539Z,27.10
2022-11-17T07:26:28.806Z,25.98
2022-11-17T07:27:31.708Z,27.77
2022-11-17T07:28:36.747Z,29.45
2022-11-17T07:29:39.855Z,25.45
2022-11-17T07:30:42.503Z,25.33
2022-11-17T07:31:45.338Z,30.30
2022-11-17T07:32:53.369Z,25.48
2022-11-17T07:33:57.625Z,23.73
2022-11-17T07:35:02.508Z,27.65
2022-11-17T07:36:11.261Z,25.92
2022-11-17T07:37:14.808Z,27.65
2022-11-17T07:38:17.630Z,28.27
2022-11-17T07:39:21.987Z,30.95
2022-11-17T07:40:25.339Z,28.38
2022-11-17T07:41:28.261Z,28.67
2022-11-17T07:42:34.752Z,26.00
2022-11-17T07:43:37.625Z,26.65
2022-11-17T07:44:40.399Z,28.85
2022-11-17T07:45:43.424Z,30.88
2022-11-17T07:46:46.647Z,29.98
2022-11-17T07:47:56.623Z,27.77
2022-11-17T07:48:59.397Z,27.60
2022-11-17T07:50:02.128Z,28.67
2022-11-17T07:51:05.841Z,28.40
2022-11-17T07:52:08.699Z,28.50
2022-11-17T07:53:11.393Z,29.67
2022-11-17T07:54:14.210Z,24.95
2022-11-17T07:55:17.421Z,26.40
2022-11-17T07:56:20.245Z,28.30
2022-11-17T07:57:25.213Z,27.92
2022-11-17T07:58:30.030Z,31.17
2022-11-17T07:59:33.157Z,31.00
2022-11-17T08:00:36.903Z,25.95
2022-11-17T08:01:40.167Z,29.17
2022-11-17T08:02:42.932Z,29.02
2022-11-17T08:03:45.874Z,30.15
2022-11-17T08:04:48.963Z,31.90
2022-11-17T08:05:53.618Z,28.65
2022-11-17T08:06:56.454Z,25.50
2022-11-17T08:08:00.378Z,26.95
2022-11-17T08:09:03.284Z,30.42
2022-11-17T08:10:06.557Z,23.60
2022-11-17T08:11:12.412Z,23.87
2022-11-17T08:12:15.114Z,22.05
2022-11-17T08:13:18.055Z,23.80
2022-11-17T08:14:20.806Z,24.20
2022-11-17T08:15:24.064Z,22.65
2022-11-17T08:16:30.882Z,24.65
2022-11-17T08:17:33.884Z,25.00
2022-11-17T08:18:37.729Z,25.45
2022-11-17T08:19:40.955Z,22.20
2022-11-17T08:20:43.676Z,23.50
2022-11-17T08:21:46.576Z,23.00
2022-11-17T08:22:50.841Z,23.85
2022-11-17T08:23:55.364Z,22.70
2022-11-17T08:24:58.323Z,20.62
2022-11-17T08:26:03.742Z,22.70
2022-11-17T08:27:09.596Z,25.80
2022-11-17T08:28:12.417Z,25.88
2022-11-17T08:29:15.233Z,21.12
2022-11-17T08:30:19.682Z,25.27
2022-11-17T08:31:22.875Z,24.23
2022-11-17T08:32:25.649Z,23.00
2022-11-17T08:33:28.989Z,21.65
2022-11-17T08:34:35.593Z,24.67
2022-11-17T08:35:38.466Z,25.08
2022-11-17T08:36:44.587Z,26.77
2022-11-17T08:37:47.820Z,23.65
2022-11-17T08:38:50.756Z,22.80
2022-11-17T08:39:53.610Z,22.62
2022-11-17T08:40:57.646Z,23.65
2022-11-17T08:42:00.535Z,25.67
2022-11-17T08:43:03.366Z,27.77
2022-11-17T08:44:06.292Z,24.58
2022-11-17T08:45:14.615Z,22.80
2022-11-17T08:46:17.489Z,22.62
2022-11-17T08:47:20.200Z,21.85
2022-11-17T08:48:23.541Z,23.05
2022-11-17T08:49:26.361Z,22.35
2022-11-17T08:50:29.470Z,21.55
2022-11-17T08:51:33.720Z,22.40
2022-11-17T08:52:36.680Z,19.90
2022-11-17T08:53:39.647Z,18.27
2022-11-17T08:54:42.470Z,21.25
2022-11-17T08:55:45.979Z,23.77
2022-11-17T08:56:48.974Z,21.05
2022-11-17T08:57:51.891Z,21.92
2022-11-17T08:58:54.847Z,19.92
2022-11-17T08:59:57.865Z,17.77
2022-11-17T09:01:05.200Z,16.05
2022-11-17T09:02:08.603Z,14.48
2022-11-17T09:03:12.486Z,15.82
2022-11-17T09:04:15.922Z,14.65
2022-11-17T09:05:18.693Z,17.00
2022-11-17T09:06:21.654Z,16.60
2022-11-17T09:07:24.595Z,16.87
2022-11-17T09:08:56.104Z,15.98
2022-11-17T09:09:53.725Z,15.93
2022-11-17T09:10:56.439Z,17.65
2022-11-17T09:12:00.502Z,19.62
2022-11-17T09:13:03.684Z,22.85
2022-11-17T09:14:07.918Z,21.52
2022-11-17T09:15:11.374Z,18.17
2022-11-17T09:16:15.503Z,20.75
2022-11-17T09:17:18.387Z,18.80
2022-11-17T09:18:21.728Z,19.15
2022-11-17T09:19:24.585Z,24.20
2022-11-17T09:20:27.309Z,23.55
2022-11-17T09:21:32.409Z,22.13
2022-11-17T09:22:35.162Z,23.85
2022-11-17T09:23:38.666Z,24.80
2022-11-17T09:24:41.735Z,27.25
2022-11-17T09:25:44.488Z,24.90
2022-11-17T09:26:47.213Z,21.35
2022-11-17T09:27:51.144Z,24.63
2022-11-17T09:28:57.602Z,22.55
2022-11-17T09:30:01.268Z,22.80
2022-11-17T09:31:13.013Z,25.65
2022-11-17T09:32:17.075Z,25.60
2022-11-17T09:33:20.263Z,23.95
2022-11-17T09:34:23.117Z,23.83
2022-11-17T09:35:26.048Z,23.60
2022-11-17T09:36:29.129Z,24.05
2022-11-17T09:37:32.077Z,25.60
2022-11-17T09:38:38.964Z,24.70
2022-11-17T09:39:42.019Z,24.50
2022-11-17T09:40:45.606Z,22.70
2022-11-17T09:41:56.505Z,22.48
2022-11-17T09:42:59.342Z,22.30
2022-11-17T09:44:07.178Z,21.23
2022-11-17T09:45:23.419Z,22.08
2022-11-17T09:46:44.898Z,22.62
2022-11-17T09:48:18.468Z,22.75
2022-11-17T09:49:22.190Z,19.95
2022-11-17T09:50:28.341Z,21.02
2022-11-17T09:51:34.637Z,20.48
2022-11-17T09:52:55.159Z,20.77
2022-11-17T09:54:12.673Z,22.98
2022-11-17T09:55:29.735Z,19.95
2022-11-17T09:56:35.927Z,19.33
2022-11-17T09:57:52.636Z,20.35
2022-11-17T09:59:06.329Z,20.58
2022-11-17T10:00:15.161Z,19.27
2022-11-17T10:01:20.246Z,19.30
2022-11-17T10:02:23.185Z,18.70
2022-11-17T10:03:29.852Z,23.45
2022-11-17T10:04:32.558Z,18.37
2022-11-17T10:05:36.193Z,19.77
2022-11-17T10:06:42.718Z,16.98
2022-11-17T10:07:51.810Z,16.67
2022-11-17T10:09:26.563Z,16.75
2022-11-17T10:10:58.427Z,16.58
2022-11-17T10:12:28.507Z,16.48
2022-11-17T10:13:33.997Z,15.10
2022-11-17T10:14:46.560Z,18.83
2022-11-17T10:16:12.904Z,17.30
2022-11-17T10:17:16.233Z,16.95
2022-11-17T10:18:19.114Z,17.95
2022-11-17T10:19:25.830Z,18.73
2022-11-17T10:20:28.885Z,19.20
2022-11-17T10:21:31.784Z,19.33
2022-11-17T10:22:37.232Z,14.48
2022-11-17T10:24:02.320Z,16.08
2022-11-17T10:25:05.671Z,14.30
2022-11-17T10:26:12.205Z,14.70
2022-11-17T10:27:17.759Z,16.62
2022-11-17T10:28:32.523Z,16.85
2022-11-17T10:29:35.480Z,13.48
2022-11-17T10:30:38.344Z,14.25
2022-11-17T10:31:49.616Z,14.20
2022-11-17T10:32:55.147Z,13.05
2022-11-17T10:33:58.050Z,13.85
2022-11-17T10:35:28.258Z,12.73
2022-11-17T10:36:33.237Z,13.65
2022-11-17T10:37:36.310Z,14.68
2022-11-17T10:38:45.793Z,13.25
2022-11-17T10:39:49.046Z,14.30
2022-11-17T10:40:53.827Z,12.10
2022-11-17T10:41:56.884Z,14.90
2022-11-17T10:43:15.389Z,13.48
2022-11-17T10:44:24.945Z,13.88
2022-11-17T10:45:28.286Z,14.35
2022-11-17T10:46:43.088Z,14.13
2022-11-17T10:47:52.211Z,12.37
2022-11-17T10:49:07.245Z,16.20
2022-11-17T10:50:24.257Z,13.62
2022-11-17T10:51:29.846Z,12.37
2022-11-17T10:52:32.675Z,12.68
2022-11-17T10:53:46.236Z,13.57
2022-11-17T10:54:53.764Z,13.27
2022-11-17T10:56:28.193Z,14.38
2022-11-17T10:57:31.224Z,13.35
2022-11-17T10:58:56.305Z,13.15
2022-11-17T11:00:00.782Z,15.07
2022-11-17T11:01:04.988Z,13.23
2022-11-17T11:02:37.005Z,12.50
2022-11-17T11:03:49.754Z,12.57
2022-11-17T11:05:05.852Z,13.18
2022-11-17T11:06:20.621Z,11.50
2022-11-17T11:07:24.263Z,15.80
2022-11-17T11:08:54.346Z,12.68
2022-11-17T11:10:06.353Z,10.02
2022-11-17T11:11:19.167Z,13.50
2022-11-17T11:12:39.795Z,12.65
2022-11-17T11:13:52.856Z,12.70
2022-11-17T11:14:59.861Z,11.25
2022-11-17T11:16:02.724Z,10.57
2022-11-17T11:17:14.137Z,11.45
2022-11-17T11:18:19.950Z,9.95
2022-11-17T11:19:23.394Z,11.05
2022-11-17T11:20:47.768Z,10.93
2022-11-17T11:22:10.878Z,10.30
2022-11-17T11:23:21.384Z,11.23
2022-11-17T11:24:46.659Z,9.80
2022-11-17T11:26:00.006Z,10.38
2022-11-17T11:27:34.420Z,10.77
2022-11-17T11:28:45.740Z,11.05
2022-11-17T11:30:01.671Z,11.73
2022-11-17T11:31:38.562Z,11.12
2022-11-17T11:32:44.909Z,10.90
2022-11-17T11:34:00.558Z,10.23
2022-11-17T11:35:17.452Z,10.48
2022-11-17T11:36:38.792Z,12.13
2022-11-17T11:37:49.531Z,10.15
2022-11-17T11:38:58.356Z,11.15
2022-11-17T11:40:22.241Z,10.15
2022-11-17T11:41:45.934Z,11.40
2022-11-17T11:43:13.929Z,11.52
2022-11-17T11:44:30.297Z,9.70
2022-11-17T11:45:42.763Z,11.15
2022-11-17T11:46:51.410Z,10.57
2022-11-17T11:48:22.409Z,12.13
2022-11-17T11:49:41.794Z,11.60
2022-11-17T11:51:02.743Z,11.52
2022-11-17T11:52:21.853Z,11.32
2022-11-17T11:53:24.615Z,12.10
2022-11-17T11:54:51.092Z,13.25
2022-11-17T11:56:19.783Z,12.43
2022-11-17T11:57:34.280Z,10.40
2022-11-17T11:58:48.790Z,10.07
2022-11-17T12:00:04.353Z,10.65
2022-11-17T12:01:09.939Z,12.55
2022-11-17T12:02:12.894Z,10.63
2022-11-17T12:03:30.657Z,10.40
2022-11-17T12:04:53.792Z,9.82
2022-11-17T12:06:25.709Z,12.52
2022-11-17T12:08:10.562Z,11.90
2022-11-17T12:09:39.022Z,11.43
2022-11-17T12:11:34.679Z,10.50
2022-11-17T12:12:39.968Z,9.48
2022-11-17T12:13:48.400Z,10.65
2022-11-17T12:15:10.722Z,11.23
2022-11-17T12:16:18.352Z,9.95
2022-11-17T12:17:24.441Z,10.15
2022-11-17T12:18:32.078Z,10.07
2022-11-17T12:19:57.551Z,9.65
2022-11-17T12:21:21.209Z,9.93
2022-11-17T12:22:29.896Z,8.15
2022-11-17T12:24:14.289Z,9.07
2022-11-17T12:25:19.554Z,10.93
2022-11-17T12:26:28.898Z,9.40
2022-11-17T12:27:34.438Z,7.43
2022-11-17T12:28:40.364Z,9.73
2022-11-17T12:29:46.905Z,9.40
2022-11-17T12:30:52.348Z,9.13
2022-11-17T12:32:00.265Z,12.02
2022-11-17T12:33:05.113Z,9.18
2022-11-17T12:34:08.386Z,8.63
2022-11-17T12:35:26.087Z,9.00
2022-11-17T12:36:34.002Z,9.40
2022-11-17T12:37:36.990Z,10.07
2022-11-17T12:38:40.710Z,11.02
2022-11-17T12:39:53.609Z,10.05
2022-11-17T12:40:56.407Z,10.07
2022-11-17T12:42:08.769Z,9.65
2022-11-17T12:43:17.670Z,10.70
2022-11-17T12:44:32.726Z,9.02
2022-11-17T12:46:09.731Z,9.90
2022-11-17T12:47:18.469Z,10.68
2022-11-17T12:48:45.150Z,9.77
2022-11-17T12:50:06.821Z,9.25
2022-11-17T12:51:17.103Z,9.18
2022-11-17T12:52:51.050Z,9.27
2022-11-17T12:54:27.709Z,9.30
2022-11-17T12:55:33.390Z,9.35
2022-11-17T12:56:55.552Z,8.27
2022-11-17T12:58:10.760Z,9.23
2022-11-17T12:59:34.974Z,9.10
2022-11-17T13:01:08.896Z,9.07
2022-11-17T13:02:28.043Z,8.93
2022-11-17T13:03:52.961Z,8.20
2022-11-17T13:05:16.166Z,9.20
2022-11-17T13:06:34.792Z,8.73
2022-11-17T13:07:38.757Z,8.52
2022-11-17T13:08:55.856Z,9.55
2022-11-17T13:10:00.236Z,8.35
2022-11-17T13:11:17.835Z,11.55
2022-11-17T13:12:31.290Z,10.32
2022-11-17T13:13:37.036Z,10.38
2022-11-17T13:16:21.861Z,10.10
2022-11-17T13:17:44.109Z,11.70
2022-11-17T13:18:48.951Z,12.07
2022-11-17T13:19:59.801Z,12.45
2022-11-17T13:21:02.978Z,12.00
2022-11-17T13:22:11.606Z,11.65
2022-11-17T13:23:23.469Z,13.73
2022-11-17T13:24:32.395Z,10.77
2022-11-17T13:25:35.418Z,11.30
2022-11-17T13:26:38.565Z,12.70
2022-11-17T13:27:50.693Z,12.02
2022-11-17T13:29:05.594Z,10.75
2022-11-17T13:31:21.438Z,10.98
2022-11-17T13:32:30.869Z,9.93
2022-11-17T13:33:39.630Z,11.30
2022-11-17T13:34:56.870Z,10.52
2022-11-17T13:36:25.291Z,9.80
2022-11-17T13:37:29.764Z,12.15
2022-11-17T13:38:32.687Z,9.73
2022-11-17T13:39:35.615Z,10.05
2022-11-17T13:40:40.876Z,10.52
2022-11-17T13:41:43.779Z,10.65
2022-11-17T13:42:48.791Z,11.25
2022-11-17T13:43:52.896Z,10.10
2022-11-17T13:44:57.571Z,10.05
2022-11-17T13:46:03.831Z,12.05
2022-11-17T13:47:21.862Z,9.32
2022-11-17T13:48:42.883Z,10.43
2022-11-17T13:49:45.780Z,11.93
2022-11-17T13:50:49.231Z,10.73
2022-11-17T13:51:52.092Z,13.62
2022-11-17T13:53:22.701Z,10.35
2022-11-17T13:54:25.906Z,10.35
2022-11-17T13:55:32.639Z,10.55
2022-11-17T13:56:41.558Z,10.27
2022-11-17T13:57:59.009Z,11.68
2022-11-17T13:59:06.453Z,11.25
2022-11-17T14:00:17.068Z,12.75
2022-11-17T14:01:25.668Z,10.23
2022-11-17T14:02:30.081Z,11.68
2022-11-17T14:03:38.917Z,12.25
2022-11-17T14:04:42.430Z,15.00
2022-11-17T14:05:58.662Z,15.18
2022-11-17T14:07:03.059Z,12.18
2022-11-17T14:08:23.107Z,12.23
2022-11-17T14:09:31.938Z,14.05
2022-11-17T14:10:38.739Z,10.68
2022-11-17T14:11:42.235Z,11.77
2022-11-17T14:12:45.995Z,10.68
2022-11-17T14:13:52.541Z,11.93
2022-11-17T14:14:55.547Z,10.00
2022-11-17T14:16:00.995Z,10.95
2022-11-17T14:17:17.535Z,11.38
2022-11-17T14:18:26.416Z,8.48
2022-11-17T14:19:34.160Z,12.32
2022-11-17T14:20:36.978Z,9.55
2022-11-17T14:22:03.950Z,8.48
2022-11-17T14:23:18.325Z,8.65
2022-11-17T14:24:23.429Z,11.52
2022-11-17T14:25:26.557Z,8.75
2022-11-17T14:26:29.625Z,9.93
2022-11-17T14:27:35.832Z,8.18
2022-11-17T14:28:40.092Z,9.35
2022-11-17T14:29:42.939Z,10.23
2022-11-17T14:30:54.321Z,9.27
2022-11-17T14:31:57.615Z,9.95
2022-11-17T14:33:07.698Z,9.98
2022-11-17T14:34:13.800Z,7.72
2022-11-17T14:36:20.796Z,8.25
2022-11-17T14:37:24.471Z,8.05
2022-11-17T14:38:27.194Z,10.13
2022-11-17T14:39:29.999Z,9.48
2022-11-17T14:40:32.822Z,15.77
2022-11-17T14:41:35.616Z,8.70
2022-11-17T14:42:38.432Z,10.05
2022-11-17T14:43:43.258Z,11.15
2022-11-17T14:44:46.040Z,7.85
2022-11-17T14:45:52.989Z,9.38
2022-11-17T14:46:58.777Z,11.00
2022-11-17T14:48:02.580Z,9.10
2022-11-17T14:49:05.952Z,8.55
2022-11-17T14:50:14.116Z,7.85
2022-11-17T14:51:17.769Z,8.45
2022-11-17T14:52:20.561Z,8.07
2022-11-17T14:53:23.843Z,7.87
2022-11-17T14:54:26.601Z,8.38